sensor_id;sensor_type;location;lat;lon;timestamp;P1;durP1;ratioP1;P2;durP2;ratioP2
9940;SDS011;5009;50.656;7.188;2022-07-18T00:01:03;3.57;;;2.70;;
9940;SDS011;5009;50.656;7.188;2022-07-18T00:03:29;3.50;;;2.70;;
9940;SDS011;5009;50.656;7.188;2022-07-18T00:05:54;3.63;;;2.77;;
9940;SDS011;5009;50.656;7.188;2022-07-18T00:08:20;2.67;;;2.47;;
9940;SDS011;5009;50.656;7.188;2022-07-18T00:10:45;3.60;;;2.50;;
9940;SDS011;5009;50.656;7.188;2022-07-18T00:13:11;3.03;;;2.60;;
9940;SDS011;5009;50.656;7.188;2022-07-18T00:15:37;3.00;;;2.43;;
9940;SDS011;5009;50.656;7.188;2022-07-18T00:18:03;2.90;;;2.20;;
9940;SDS011;5009;50.656;7.188;2022-07-18T00:20:29;2.50;;;2.30;;
9940;SDS011;5009;50.656;7.188;2022-07-18T00:22:54;4.37;;;2.80;;
9940;SDS011;5009;50.656;7.188;2022-07-18T00:25:20;2.70;;;2.50;;
9940;SDS011;5009;50.656;7.188;2022-07-18T00:27:47;3.80;;;2.33;;
9940;SDS011;5009;50.656;7.188;2022-07-18T00:30:12;4.27;;;2.43;;
9940;SDS011;5009;50.656;7.188;2022-07-18T00:32:38;6.40;;;2.47;;
9940;SDS011;5009;50.656;7.188;2022-07-18T00:35:04;2.50;;;2.30;;
9940;SDS011;5009;50.656;7.188;2022-07-18T00:37:30;4.10;;;2.53;;
9940;SDS011;5009;50.656;7.188;2022-07-18T00:39:56;2.90;;;2.70;;
9940;SDS011;5009;50.656;7.188;2022-07-18T00:42:21;3.90;;;2.97;;
9940;SDS011;5009;50.656;7.188;2022-07-18T00:44:51;2.70;;;2.50;;
9940;SDS011;5009;50.656;7.188;2022-07-18T00:47:20;3.53;;;2.63;;
9940;SDS011;5009;50.656;7.188;2022-07-18T00:49:46;3.40;;;2.83;;
9940;SDS011;5009;50.656;7.188;2022-07-18T00:52:12;2.80;;;2.57;;
9940;SDS011;5009;50.656;7.188;2022-07-18T00:54:38;3.73;;;2.63;;
9940;SDS011;5009;50.656;7.188;2022-07-18T00:57:04;2.80;;;2.60;;
9940;SDS011;5009;50.656;7.188;2022-07-18T00:59:30;2.73;;;2.33;;
9940;SDS011;5009;50.656;7.188;2022-07-18T01:02:14;2.03;;;1.93;;
9940;SDS011;5009;50.656;7.188;2022-07-18T01:04:40;2.93;;;2.67;;
9940;SDS011;5009;50.656;7.188;2022-07-18T01:07:06;3.67;;;2.60;;
9940;SDS011;5009;50.656;7.188;2022-07-18T01:09:32;2.70;;;2.50;;
9940;SDS011;5009;50.656;7.188;2022-07-18T01:11:57;3.07;;;2.40;;
9940;SDS011;5009;50.656;7.188;2022-07-18T01:14:23;3.67;;;2.50;;
9940;SDS011;5009;50.656;7.188;2022-07-18T01:16:50;3.00;;;2.47;;
9940;SDS011;5009;50.656;7.188;2022-07-18T01:19:16;4.40;;;3.00;;
9940;SDS011;5009;50.656;7.188;2022-07-18T01:21:41;3.20;;;2.60;;
9940;SDS011;5009;50.656;7.188;2022-07-18T01:24:07;2.67;;;2.40;;
9940;SDS011;5009;50.656;7.188;2022-07-18T01:26:33;3.60;;;2.47;;
9940;SDS011;5009;50.656;7.188;2022-07-18T01:28:59;2.60;;;2.40;;
9940;SDS011;5009;50.656;7.188;2022-07-18T01:31:25;2.97;;;2.53;;
9940;SDS011;5009;50.656;7.188;2022-07-18T01:33:53;2.20;;;2.10;;
9940;SDS011;5009;50.656;7.188;2022-07-18T01:36:19;3.30;;;2.50;;
9940;SDS011;5009;50.656;7.188;2022-07-18T01:38:45;3.23;;;2.30;;
9940;SDS011;5009;50.656;7.188;2022-07-18T01:41:10;5.13;;;2.80;;
9940;SDS011;5009;50.656;7.188;2022-07-18T01:43:39;2.80;;;2.60;;
9940;SDS011;5009;50.656;7.188;2022-07-18T01:46:06;4.83;;;2.40;;
9940;SDS011;5009;50.656;7.188;2022-07-18T01:48:32;3.73;;;2.50;;
9940;SDS011;5009;50.656;7.188;2022-07-18T01:50:58;2.50;;;2.30;;
9940;SDS011;5009;50.656;7.188;2022-07-18T01:53:24;2.70;;;2.50;;
9940;SDS011;5009;50.656;7.188;2022-07-18T01:55:50;2.60;;;2.40;;
9940;SDS011;5009;50.656;7.188;2022-07-18T01:58:16;5.63;;;2.90;;
9940;SDS011;5009;50.656;7.188;2022-07-18T02:00:42;4.73;;;2.70;;
9940;SDS011;5009;50.656;7.188;2022-07-18T02:03:07;3.13;;;2.40;;
9940;SDS011;5009;50.656;7.188;2022-07-18T02:05:33;2.80;;;2.30;;
9940;SDS011;5009;50.656;7.188;2022-07-18T02:07:58;3.10;;;2.80;;
9940;SDS011;5009;50.656;7.188;2022-07-18T02:10:24;2.80;;;2.50;;
9940;SDS011;5009;50.656;7.188;2022-07-18T02:12:50;3.00;;;2.80;;
9940;SDS011;5009;50.656;7.188;2022-07-18T02:15:15;4.40;;;2.43;;
9940;SDS011;5009;50.656;7.188;2022-07-18T02:17:41;2.67;;;2.40;;
9940;SDS011;5009;50.656;7.188;2022-07-18T02:20:10;3.60;;;2.67;;
9940;SDS011;5009;50.656;7.188;2022-07-18T02:22:37;2.67;;;2.47;;
9940;SDS011;5009;50.656;7.188;2022-07-18T02:25:03;4.43;;;3.13;;
9940;SDS011;5009;50.656;7.188;2022-07-18T02:27:30;4.57;;;2.97;;
9940;SDS011;5009;50.656;7.188;2022-07-18T02:29:56;3.17;;;2.60;;
9940;SDS011;5009;50.656;7.188;2022-07-18T02:32:22;3.67;;;2.40;;
9940;SDS011;5009;50.656;7.188;2022-07-18T02:34:48;4.80;;;3.40;;
9940;SDS011;5009;50.656;7.188;2022-07-18T02:37:13;3.93;;;2.60;;
9940;SDS011;5009;50.656;7.188;2022-07-18T02:39:39;4.00;;;2.80;;
9940;SDS011;5009;50.656;7.188;2022-07-18T02:42:05;6.10;;;3.37;;
9940;SDS011;5009;50.656;7.188;2022-07-18T02:44:30;3.47;;;2.80;;
9940;SDS011;5009;50.656;7.188;2022-07-18T02:46:56;4.80;;;2.97;;
9940;SDS011;5009;50.656;7.188;2022-07-18T02:49:22;6.10;;;3.40;;
9940;SDS011;5009;50.656;7.188;2022-07-18T02:52:03;3.30;;;2.97;;
9940;SDS011;5009;50.656;7.188;2022-07-18T02:54:30;4.83;;;2.83;;
9940;SDS011;5009;50.656;7.188;2022-07-18T02:56:57;4.23;;;2.73;;
9940;SDS011;5009;50.656;7.188;2022-07-18T02:59:24;2.77;;;2.57;;
9940;SDS011;5009;50.656;7.188;2022-07-18T03:01:50;4.10;;;2.83;;
9940;SDS011;5009;50.656;7.188;2022-07-18T03:04:16;6.07;;;3.30;;
9940;SDS011;5009;50.656;7.188;2022-07-18T03:06:43;3.10;;;2.80;;
9940;SDS011;5009;50.656;7.188;2022-07-18T03:09:09;4.07;;;2.73;;
9940;SDS011;5009;50.656;7.188;2022-07-18T03:11:34;4.87;;;3.00;;
9940;SDS011;5009;50.656;7.188;2022-07-18T03:14:00;4.27;;;2.60;;
9940;SDS011;5009;50.656;7.188;2022-07-18T03:16:26;6.57;;;3.40;;
9940;SDS011;5009;50.656;7.188;2022-07-18T03:18:51;4.33;;;2.80;;
9940;SDS011;5009;50.656;7.188;2022-07-18T03:21:17;3.00;;;2.70;;
9940;SDS011;5009;50.656;7.188;2022-07-18T03:23:42;4.40;;;2.90;;
9940;SDS011;5009;50.656;7.188;2022-07-18T03:26:08;3.37;;;2.80;;
9940;SDS011;5009;50.656;7.188;2022-07-18T03:28:33;3.57;;;2.97;;
9940;SDS011;5009;50.656;7.188;2022-07-18T03:30:59;5.53;;;3.10;;
9940;SDS011;5009;50.656;7.188;2022-07-18T03:33:25;3.20;;;2.70;;
9940;SDS011;5009;50.656;7.188;2022-07-18T03:35:51;4.80;;;3.27;;
9940;SDS011;5009;50.656;7.188;2022-07-18T03:38:17;4.03;;;2.90;;
9940;SDS011;5009;50.656;7.188;2022-07-18T03:40:42;4.87;;;3.50;;
9940;SDS011;5009;50.656;7.188;2022-07-18T03:43:08;4.63;;;3.50;;
9940;SDS011;5009;50.656;7.188;2022-07-18T03:45:33;5.10;;;2.93;;
9940;SDS011;5009;50.656;7.188;2022-07-18T03:47:59;4.10;;;3.13;;
9940;SDS011;5009;50.656;7.188;2022-07-18T03:50:25;5.00;;;2.93;;
9940;SDS011;5009;50.656;7.188;2022-07-18T03:52:52;4.27;;;3.03;;
9940;SDS011;5009;50.656;7.188;2022-07-18T03:55:18;3.10;;;2.80;;
9940;SDS011;5009;50.656;7.188;2022-07-18T03:57:44;3.43;;;3.10;;
9940;SDS011;5009;50.656;7.188;2022-07-18T04:00:10;4.90;;;3.13;;
9940;SDS011;5009;50.656;7.188;2022-07-18T04:02:43;3.30;;;3.00;;
9940;SDS011;5009;50.656;7.188;2022-07-18T04:05:10;4.97;;;3.07;;
9940;SDS011;5009;50.656;7.188;2022-07-18T04:07:37;4.90;;;3.20;;
9940;SDS011;5009;50.656;7.188;2022-07-18T04:10:03;4.03;;;3.10;;
9940;SDS011;5009;50.656;7.188;2022-07-18T04:12:30;4.43;;;3.03;;
9940;SDS011;5009;50.656;7.188;2022-07-18T04:14:56;3.53;;;3.20;;
9940;SDS011;5009;50.656;7.188;2022-07-18T04:17:23;4.43;;;3.10;;
9940;SDS011;5009;50.656;7.188;2022-07-18T04:19:49;3.93;;;3.10;;
9940;SDS011;5009;50.656;7.188;2022-07-18T04:22:15;3.07;;;2.87;;
9940;SDS011;5009;50.656;7.188;2022-07-18T04:24:40;3.77;;;3.20;;
9940;SDS011;5009;50.656;7.188;2022-07-18T04:27:06;5.27;;;3.17;;
9940;SDS011;5009;50.656;7.188;2022-07-18T04:29:31;4.93;;;3.07;;
9940;SDS011;5009;50.656;7.188;2022-07-18T04:31:57;4.90;;;2.93;;
9940;SDS011;5009;50.656;7.188;2022-07-18T04:34:23;4.00;;;2.90;;
9940;SDS011;5009;50.656;7.188;2022-07-18T04:36:49;5.53;;;3.33;;
9940;SDS011;5009;50.656;7.188;2022-07-18T04:39:14;5.83;;;3.23;;
9940;SDS011;5009;50.656;7.188;2022-07-18T04:41:41;4.83;;;3.20;;
9940;SDS011;5009;50.656;7.188;2022-07-18T04:44:10;4.07;;;3.47;;
9940;SDS011;5009;50.656;7.188;2022-07-18T04:46:35;3.97;;;3.43;;
9940;SDS011;5009;50.656;7.188;2022-07-18T04:49:01;6.03;;;3.13;;
9940;SDS011;5009;50.656;7.188;2022-07-18T04:51:27;5.17;;;3.40;;
9940;SDS011;5009;50.656;7.188;2022-07-18T04:53:52;5.50;;;3.20;;
9940;SDS011;5009;50.656;7.188;2022-07-18T04:56:20;4.30;;;3.10;;
9940;SDS011;5009;50.656;7.188;2022-07-18T04:58:46;7.13;;;3.30;;
9940;SDS011;5009;50.656;7.188;2022-07-18T05:01:11;5.43;;;3.33;;
9940;SDS011;5009;50.656;7.188;2022-07-18T05:03:37;4.97;;;3.40;;
9940;SDS011;5009;50.656;7.188;2022-07-18T05:06:02;5.07;;;3.40;;
9940;SDS011;5009;50.656;7.188;2022-07-18T05:08:28;5.83;;;3.33;;
9940;SDS011;5009;50.656;7.188;2022-07-18T05:10:54;5.97;;;3.50;;
9940;SDS011;5009;50.656;7.188;2022-07-18T05:13:19;3.92;;;3.47;;
9940;SDS011;5009;50.656;7.188;2022-07-18T05:15:45;4.90;;;3.22;;
9940;SDS011;5009;50.656;7.188;2022-07-18T05:18:11;3.35;;;3.00;;
9940;SDS011;5009;50.656;7.188;2022-07-18T05:20:36;7.68;;;4.03;;
9940;SDS011;5009;50.656;7.188;2022-07-18T05:23:02;10.20;;;3.50;;
9940;SDS011;5009;50.656;7.188;2022-07-18T05:25:28;8.27;;;3.65;;
9940;SDS011;5009;50.656;7.188;2022-07-18T05:27:53;9.88;;;3.97;;
9940;SDS011;5009;50.656;7.188;2022-07-18T05:30:20;7.75;;;3.63;;
9940;SDS011;5009;50.656;7.188;2022-07-18T05:32:46;5.45;;;3.65;;
9940;SDS011;5009;50.656;7.188;2022-07-18T05:35:12;9.10;;;3.60;;
9940;SDS011;5009;50.656;7.188;2022-07-18T05:37:38;6.15;;;3.30;;
9940;SDS011;5009;50.656;7.188;2022-07-18T05:40:05;4.68;;;3.47;;
9940;SDS011;5009;50.656;7.188;2022-07-18T05:42:33;3.53;;;3.03;;
9940;SDS011;5009;50.656;7.188;2022-07-18T05:44:58;6.22;;;3.65;;
9940;SDS011;5009;50.656;7.188;2022-07-18T05:47:24;4.88;;;3.53;;
9940;SDS011;5009;50.656;7.188;2022-07-18T05:49:49;6.30;;;3.70;;
9940;SDS011;5009;50.656;7.188;2022-07-18T05:52:15;3.25;;;2.95;;
9940;SDS011;5009;50.656;7.188;2022-07-18T05:54:40;5.05;;;3.50;;
9940;SDS011;5009;50.656;7.188;2022-07-18T05:57:06;4.07;;;3.67;;
9940;SDS011;5009;50.656;7.188;2022-07-18T05:59:32;3.53;;;3.22;;
9940;SDS011;5009;50.656;7.188;2022-07-18T06:01:57;4.45;;;3.40;;
9940;SDS011;5009;50.656;7.188;2022-07-18T06:04:23;4.97;;;3.42;;
9940;SDS011;5009;50.656;7.188;2022-07-18T06:06:48;6.28;;;3.63;;
9940;SDS011;5009;50.656;7.188;2022-07-18T06:09:15;3.90;;;3.50;;
9940;SDS011;5009;50.656;7.188;2022-07-18T06:11:41;6.07;;;3.65;;
9940;SDS011;5009;50.656;7.188;2022-07-18T06:14:06;5.10;;;3.40;;
9940;SDS011;5009;50.656;7.188;2022-07-18T06:16:32;4.78;;;3.33;;
9940;SDS011;5009;50.656;7.188;2022-07-18T06:18:58;4.38;;;3.28;;
9940;SDS011;5009;50.656;7.188;2022-07-18T06:21:24;4.88;;;3.25;;
9940;SDS011;5009;50.656;7.188;2022-07-18T06:23:49;4.85;;;3.22;;
9940;SDS011;5009;50.656;7.188;2022-07-18T06:26:15;3.55;;;3.08;;
9940;SDS011;5009;50.656;7.188;2022-07-18T06:28:41;4.03;;;3.53;;
9940;SDS011;5009;50.656;7.188;2022-07-18T06:31:06;4.55;;;3.30;;
9940;SDS011;5009;50.656;7.188;2022-07-18T06:33:32;4.50;;;3.22;;
9940;SDS011;5009;50.656;7.188;2022-07-18T06:35:57;11.90;;;3.28;;
9940;SDS011;5009;50.656;7.188;2022-07-18T06:38:23;4.45;;;3.28;;
9940;SDS011;5009;50.656;7.188;2022-07-18T06:40:48;4.45;;;3.42;;
9940;SDS011;5009;50.656;7.188;2022-07-18T06:43:14;3.90;;;3.10;;
9940;SDS011;5009;50.656;7.188;2022-07-18T06:45:44;3.53;;;3.20;;
9940;SDS011;5009;50.656;7.188;2022-07-18T06:48:11;5.03;;;3.53;;
9940;SDS011;5009;50.656;7.188;2022-07-18T06:50:37;4.20;;;3.80;;
9940;SDS011;5009;50.656;7.188;2022-07-18T06:53:02;4.90;;;3.40;;
9940;SDS011;5009;50.656;7.188;2022-07-18T06:55:28;4.97;;;3.25;;
9940;SDS011;5009;50.656;7.188;2022-07-18T06:57:54;3.55;;;3.25;;
9940;SDS011;5009;50.656;7.188;2022-07-18T07:00:19;5.95;;;3.58;;
9940;SDS011;5009;50.656;7.188;2022-07-18T07:02:45;5.07;;;3.42;;
9940;SDS011;5009;50.656;7.188;2022-07-18T07:05:13;5.15;;;3.33;;
9940;SDS011;5009;50.656;7.188;2022-07-18T07:07:40;6.38;;;3.47;;
9940;SDS011;5009;50.656;7.188;2022-07-18T07:10:06;4.30;;;3.53;;
9940;SDS011;5009;50.656;7.188;2022-07-18T07:12:42;4.53;;;3.28;;
9940;SDS011;5009;50.656;7.188;2022-07-18T07:15:09;5.03;;;3.45;;
9940;SDS011;5009;50.656;7.188;2022-07-18T07:17:35;4.10;;;3.20;;
9940;SDS011;5009;50.656;7.188;2022-07-18T07:20:03;4.40;;;3.42;;
9940;SDS011;5009;50.656;7.188;2022-07-18T07:22:30;3.90;;;3.38;;
9940;SDS011;5009;50.656;7.188;2022-07-18T07:24:56;3.72;;;3.40;;
9940;SDS011;5009;50.656;7.188;2022-07-18T07:27:22;4.82;;;3.20;;
9940;SDS011;5009;50.656;7.188;2022-07-18T07:29:47;4.13;;;3.70;;
9940;SDS011;5009;50.656;7.188;2022-07-18T07:32:13;4.07;;;3.25;;
9940;SDS011;5009;50.656;7.188;2022-07-18T07:34:38;3.88;;;3.58;;
9940;SDS011;5009;50.656;7.188;2022-07-18T07:37:04;5.78;;;3.90;;
9940;SDS011;5009;50.656;7.188;2022-07-18T07:39:29;7.53;;;3.67;;
9940;SDS011;5009;50.656;7.188;2022-07-18T07:41:55;4.22;;;3.80;;
9940;SDS011;5009;50.656;7.188;2022-07-18T07:44:20;4.82;;;3.60;;
9940;SDS011;5009;50.656;7.188;2022-07-18T07:46:46;3.90;;;3.50;;
9940;SDS011;5009;50.656;7.188;2022-07-18T07:49:11;4.75;;;3.30;;
9940;SDS011;5009;50.656;7.188;2022-07-18T07:51:37;3.90;;;3.30;;
9940;SDS011;5009;50.656;7.188;2022-07-18T07:54:03;3.45;;;3.17;;
9940;SDS011;5009;50.656;7.188;2022-07-18T07:56:30;3.78;;;3.22;;
9940;SDS011;5009;50.656;7.188;2022-07-18T07:58:56;5.28;;;3.38;;
9940;SDS011;5009;50.656;7.188;2022-07-18T08:01:21;6.10;;;3.42;;
9940;SDS011;5009;50.656;7.188;2022-07-18T08:03:47;3.60;;;2.92;;
9940;SDS011;5009;50.656;7.188;2022-07-18T08:06:14;5.38;;;3.13;;
9940;SDS011;5009;50.656;7.188;2022-07-18T08:08:40;4.10;;;3.00;;
9940;SDS011;5009;50.656;7.188;2022-07-18T08:11:06;4.20;;;2.60;;
9940;SDS011;5009;50.656;7.188;2022-07-18T08:13:31;5.80;;;2.88;;
9940;SDS011;5009;50.656;7.188;2022-07-18T08:15:57;3.42;;;2.90;;
9940;SDS011;5009;50.656;7.188;2022-07-18T08:18:23;4.68;;;2.90;;
9940;SDS011;5009;50.656;7.188;2022-07-18T08:20:48;3.50;;;2.67;;
9940;SDS011;5009;50.656;7.188;2022-07-18T08:23:14;5.25;;;2.55;;
9940;SDS011;5009;50.656;7.188;2022-07-18T08:25:42;3.00;;;2.33;;
9940;SDS011;5009;50.656;7.188;2022-07-18T08:28:09;3.50;;;2.60;;
9940;SDS011;5009;50.656;7.188;2022-07-18T08:30:35;5.10;;;2.78;;
9940;SDS011;5009;50.656;7.188;2022-07-18T08:33:02;4.65;;;2.70;;
9940;SDS011;5009;50.656;7.188;2022-07-18T08:35:29;3.10;;;2.47;;
9940;SDS011;5009;50.656;7.188;2022-07-18T08:37:56;3.88;;;2.63;;
9940;SDS011;5009;50.656;7.188;2022-07-18T08:40:22;5.85;;;2.60;;
9940;SDS011;5009;50.656;7.188;2022-07-18T08:42:49;3.10;;;2.10;;
9940;SDS011;5009;50.656;7.188;2022-07-18T08:45:18;4.80;;;2.53;;
9940;SDS011;5009;50.656;7.188;2022-07-18T08:47:46;4.75;;;2.50;;
9940;SDS011;5009;50.656;7.188;2022-07-18T08:50:12;7.55;;;2.78;;
9940;SDS011;5009;50.656;7.188;2022-07-18T08:52:38;3.83;;;2.42;;
9940;SDS011;5009;50.656;7.188;2022-07-18T08:55:05;3.92;;;2.33;;
9940;SDS011;5009;50.656;7.188;2022-07-18T08:57:34;3.53;;;2.40;;
9940;SDS011;5009;50.656;7.188;2022-07-18T09:00:02;6.57;;;2.50;;
9940;SDS011;5009;50.656;7.188;2022-07-18T09:02:29;2.78;;;2.15;;
9940;SDS011;5009;50.656;7.188;2022-07-18T09:04:54;5.57;;;2.08;;
9940;SDS011;5009;50.656;7.188;2022-07-18T09:07:27;5.68;;;2.63;;
9940;SDS011;5009;50.656;7.188;2022-07-18T09:09:57;4.93;;;2.55;;
9940;SDS011;5009;50.656;7.188;2022-07-18T09:12:28;3.83;;;2.42;;
9940;SDS011;5009;50.656;7.188;2022-07-18T09:14:56;4.85;;;2.40;;
9940;SDS011;5009;50.656;7.188;2022-07-18T09:17:24;4.30;;;2.42;;
9940;SDS011;5009;50.656;7.188;2022-07-18T09:22:29;4.63;;;2.30;;
9940;SDS011;5009;50.656;7.188;2022-07-18T09:32:45;3.17;;;2.25;;
9940;SDS011;5009;50.656;7.188;2022-07-18T09:35:24;2.45;;;2.22;;
9940;SDS011;5009;50.656;7.188;2022-07-18T09:37:59;3.17;;;2.30;;
9940;SDS011;5009;50.656;7.188;2022-07-18T09:40:36;4.10;;;2.33;;
9940;SDS011;5009;50.656;7.188;2022-07-18T09:43:10;3.10;;;2.20;;
9940;SDS011;5009;50.656;7.188;2022-07-18T09:45:48;2.20;;;2.00;;
9940;SDS011;5009;50.656;7.188;2022-07-18T09:48:16;3.85;;;2.28;;
9940;SDS011;5009;50.656;7.188;2022-07-18T09:50:50;3.97;;;2.20;;
9940;SDS011;5009;50.656;7.188;2022-07-18T09:53:34;3.83;;;2.22;;
9940;SDS011;5009;50.656;7.188;2022-07-18T09:58:32;3.65;;;1.98;;
9940;SDS011;5009;50.656;7.188;2022-07-18T10:01:00;2.83;;;2.50;;
9940;SDS011;5009;50.656;7.188;2022-07-18T10:03:28;2.05;;;1.90;;
9940;SDS011;5009;50.656;7.188;2022-07-18T10:05:55;2.40;;;1.80;;
9940;SDS011;5009;50.656;7.188;2022-07-18T10:08:23;3.90;;;2.30;;
9940;SDS011;5009;50.656;7.188;2022-07-18T10:10:51;4.10;;;1.83;;
9940;SDS011;5009;50.656;7.188;2022-07-18T10:13:18;4.97;;;2.20;;
9940;SDS011;5009;50.656;7.188;2022-07-18T10:15:46;2.30;;;2.10;;
9940;SDS011;5009;50.656;7.188;2022-07-18T10:18:13;2.17;;;1.98;;
9940;SDS011;5009;50.656;7.188;2022-07-18T10:25:40;5.25;;;2.50;;
9940;SDS011;5009;50.656;7.188;2022-07-18T10:28:11;2.70;;;2.30;;
9940;SDS011;5009;50.656;7.188;2022-07-18T10:30:47;2.33;;;2.22;;
9940;SDS011;5009;50.656;7.188;2022-07-18T10:33:47;2.85;;;2.20;;
9940;SDS011;5009;50.656;7.188;2022-07-18T10:39:04;3.63;;;1.92;;
9940;SDS011;5009;50.656;7.188;2022-07-18T10:44:31;4.25;;;2.05;;
9940;SDS011;5009;50.656;7.188;2022-07-18T10:57:28;5.93;;;2.40;;
9940;SDS011;5009;50.656;7.188;2022-07-18T10:59:58;3.25;;;2.30;;
9940;SDS011;5009;50.656;7.188;2022-07-18T11:03:21;4.85;;;2.17;;
9940;SDS011;5009;50.656;7.188;2022-07-18T11:08:36;2.38;;;2.22;;
9940;SDS011;5009;50.656;7.188;2022-07-18T11:13:22;3.63;;;2.03;;
9940;SDS011;5009;50.656;7.188;2022-07-18T11:18:36;2.28;;;1.98;;
9940;SDS011;5009;50.656;7.188;2022-07-18T11:21:23;3.20;;;2.45;;
9940;SDS011;5009;50.656;7.188;2022-07-18T11:24:00;4.25;;;2.40;;
9940;SDS011;5009;50.656;7.188;2022-07-18T11:26:34;2.83;;;2.42;;
9940;SDS011;5009;50.656;7.188;2022-07-18T11:29:04;3.15;;;2.15;;
9940;SDS011;5009;50.656;7.188;2022-07-18T11:31:32;2.30;;;2.10;;
9940;SDS011;5009;50.656;7.188;2022-07-18T11:34:18;2.30;;;2.10;;
9940;SDS011;5009;50.656;7.188;2022-07-18T11:36:45;3.70;;;2.60;;
9940;SDS011;5009;50.656;7.188;2022-07-18T11:39:12;5.22;;;2.20;;
9940;SDS011;5009;50.656;7.188;2022-07-18T11:41:39;4.55;;;2.30;;
9940;SDS011;5009;50.656;7.188;2022-07-18T11:44:06;5.32;;;2.30;;
9940;SDS011;5009;50.656;7.188;2022-07-18T11:47:12;3.30;;;2.30;;
9940;SDS011;5009;50.656;7.188;2022-07-18T11:49:38;7.88;;;2.53;;
9940;SDS011;5009;50.656;7.188;2022-07-18T11:52:18;6.40;;;2.70;;
9940;SDS011;5009;50.656;7.188;2022-07-18T11:54:43;6.75;;;2.60;;
9940;SDS011;5009;50.656;7.188;2022-07-18T11:57:09;5.20;;;2.38;;
9940;SDS011;5009;50.656;7.188;2022-07-18T11:59:35;8.30;;;2.83;;
9940;SDS011;5009;50.656;7.188;2022-07-18T12:02:05;5.05;;;2.58;;
9940;SDS011;5009;50.656;7.188;2022-07-18T12:04:32;5.35;;;2.50;;
9940;SDS011;5009;50.656;7.188;2022-07-18T12:09:43;4.75;;;2.50;;
9940;SDS011;5009;50.656;7.188;2022-07-18T12:12:10;5.53;;;2.70;;
9940;SDS011;5009;50.656;7.188;2022-07-18T12:14:36;5.22;;;2.47;;
9940;SDS011;5009;50.656;7.188;2022-07-18T12:17:03;6.47;;;2.70;;
9940;SDS011;5009;50.656;7.188;2022-07-18T12:19:34;7.45;;;2.63;;
9940;SDS011;5009;50.656;7.188;2022-07-18T12:22:11;5.43;;;2.70;;
9940;SDS011;5009;50.656;7.188;2022-07-18T12:24:41;5.07;;;2.55;;
9940;SDS011;5009;50.656;7.188;2022-07-18T12:32:41;4.95;;;2.72;;
9940;SDS011;5009;50.656;7.188;2022-07-18T12:35:08;7.05;;;2.60;;
9940;SDS011;5009;50.656;7.188;2022-07-18T12:37:50;4.75;;;2.38;;
9940;SDS011;5009;50.656;7.188;2022-07-18T12:40:21;4.97;;;2.78;;
9940;SDS011;5009;50.656;7.188;2022-07-18T12:42:47;2.90;;;2.50;;
9940;SDS011;5009;50.656;7.188;2022-07-18T12:45:13;5.05;;;2.40;;
9940;SDS011;5009;50.656;7.188;2022-07-18T12:47:39;5.72;;;2.28;;
9940;SDS011;5009;50.656;7.188;2022-07-18T12:50:06;6.07;;;2.70;;
9940;SDS011;5009;50.656;7.188;2022-07-18T12:52:32;3.17;;;2.58;;
9940;SDS011;5009;50.656;7.188;2022-07-18T12:54:58;3.95;;;2.40;;
9940;SDS011;5009;50.656;7.188;2022-07-18T12:57:24;4.30;;;2.70;;
9940;SDS011;5009;50.656;7.188;2022-07-18T12:59:50;2.80;;;2.55;;
9940;SDS011;5009;50.656;7.188;2022-07-18T13:02:16;3.33;;;2.55;;
9940;SDS011;5009;50.656;7.188;2022-07-18T13:04:42;4.05;;;2.58;;
9940;SDS011;5009;50.656;7.188;2022-07-18T13:07:08;2.67;;;2.47;;
9940;SDS011;5009;50.656;7.188;2022-07-18T13:09:35;4.55;;;2.60;;
9940;SDS011;5009;50.656;7.188;2022-07-18T13:12:01;5.00;;;2.50;;
9940;SDS011;5009;50.656;7.188;2022-07-18T13:14:27;5.55;;;2.55;;
9940;SDS011;5009;50.656;7.188;2022-07-18T13:16:53;3.47;;;2.13;;
9940;SDS011;5009;50.656;7.188;2022-07-18T13:19:19;5.03;;;2.47;;
9940;SDS011;5009;50.656;7.188;2022-07-18T13:21:45;5.68;;;2.60;;
9940;SDS011;5009;50.656;7.188;2022-07-18T13:24:12;2.50;;;2.30;;
9940;SDS011;5009;50.656;7.188;2022-07-18T13:26:38;3.65;;;2.60;;
9940;SDS011;5009;50.656;7.188;2022-07-18T13:29:04;4.38;;;2.53;;
9940;SDS011;5009;50.656;7.188;2022-07-18T13:31:31;4.38;;;2.42;;
9940;SDS011;5009;50.656;7.188;2022-07-18T13:33:56;5.63;;;2.78;;
9940;SDS011;5009;50.656;7.188;2022-07-18T13:36:22;2.58;;;2.38;;
9940;SDS011;5009;50.656;7.188;2022-07-18T13:38:48;3.42;;;2.80;;
9940;SDS011;5009;50.656;7.188;2022-07-18T13:41:13;3.63;;;2.80;;
9940;SDS011;5009;50.656;7.188;2022-07-18T13:43:39;8.07;;;2.65;;
9940;SDS011;5009;50.656;7.188;2022-07-18T13:46:06;8.13;;;2.83;;
9940;SDS011;5009;50.656;7.188;2022-07-18T13:48:32;7.82;;;2.50;;
9940;SDS011;5009;50.656;7.188;2022-07-18T13:50:58;4.97;;;2.60;;
9940;SDS011;5009;50.656;7.188;2022-07-18T13:53:23;2.60;;;2.38;;
9940;SDS011;5009;50.656;7.188;2022-07-18T13:55:50;3.67;;;2.58;;
9940;SDS011;5009;50.656;7.188;2022-07-18T13:58:15;4.43;;;2.50;;
9940;SDS011;5009;50.656;7.188;2022-07-18T14:00:41;3.33;;;2.40;;
9940;SDS011;5009;50.656;7.188;2022-07-18T14:03:07;6.20;;;2.47;;
9940;SDS011;5009;50.656;7.188;2022-07-18T14:05:33;4.53;;;2.42;;
9940;SDS011;5009;50.656;7.188;2022-07-18T14:07:58;7.82;;;3.05;;
9940;SDS011;5009;50.656;7.188;2022-07-18T14:10:24;3.80;;;2.40;;
9940;SDS011;5009;50.656;7.188;2022-07-18T14:12:50;6.60;;;2.42;;
9940;SDS011;5009;50.656;7.188;2022-07-18T14:15:15;4.72;;;2.30;;
9940;SDS011;5009;50.656;7.188;2022-07-18T14:17:41;4.20;;;2.33;;
9940;SDS011;5009;50.656;7.188;2022-07-18T14:20:08;4.47;;;2.55;;
9940;SDS011;5009;50.656;7.188;2022-07-18T14:22:35;3.08;;;2.80;;
9940;SDS011;5009;50.656;7.188;2022-07-18T14:25:02;4.75;;;2.35;;
9940;SDS011;5009;50.656;7.188;2022-07-18T14:27:28;4.70;;;2.95;;
9940;SDS011;5009;50.656;7.188;2022-07-18T14:29:54;3.10;;;2.58;;
9940;SDS011;5009;50.656;7.188;2022-07-18T14:32:19;2.67;;;2.33;;
9940;SDS011;5009;50.656;7.188;2022-07-18T14:34:45;5.47;;;2.80;;
9940;SDS011;5009;50.656;7.188;2022-07-18T14:37:11;3.83;;;2.53;;
9940;SDS011;5009;50.656;7.188;2022-07-18T14:39:36;4.05;;;2.78;;
9940;SDS011;5009;50.656;7.188;2022-07-18T14:42:02;4.65;;;2.65;;
9940;SDS011;5009;50.656;7.188;2022-07-18T14:44:27;3.92;;;2.83;;
9940;SDS011;5009;50.656;7.188;2022-07-18T14:46:53;3.17;;;2.80;;
9940;SDS011;5009;50.656;7.188;2022-07-18T14:49:19;5.18;;;2.80;;
9940;SDS011;5009;50.656;7.188;2022-07-18T14:51:44;6.93;;;2.53;;
9940;SDS011;5009;50.656;7.188;2022-07-18T14:54:10;2.58;;;2.38;;
9940;SDS011;5009;50.656;7.188;2022-07-18T14:56:37;5.32;;;2.47;;
9940;SDS011;5009;50.656;7.188;2022-07-18T14:59:02;2.40;;;2.20;;
9940;SDS011;5009;50.656;7.188;2022-07-18T15:01:28;3.45;;;2.50;;
9940;SDS011;5009;50.656;7.188;2022-07-18T15:03:56;7.03;;;2.60;;
9940;SDS011;5009;50.656;7.188;2022-07-18T15:06:22;4.53;;;3.13;;
9940;SDS011;5009;50.656;7.188;2022-07-18T15:08:48;3.35;;;2.70;;
9940;SDS011;5009;50.656;7.188;2022-07-18T15:11:13;2.58;;;2.35;;
9940;SDS011;5009;50.656;7.188;2022-07-18T15:13:43;6.10;;;2.70;;
9940;SDS011;5009;50.656;7.188;2022-07-18T15:16:08;3.20;;;2.90;;
9940;SDS011;5009;50.656;7.188;2022-07-18T15:18:34;2.95;;;2.75;;
9940;SDS011;5009;50.656;7.188;2022-07-18T15:21:00;2.90;;;2.70;;
9940;SDS011;5009;50.656;7.188;2022-07-18T15:23:25;4.30;;;2.95;;
9940;SDS011;5009;50.656;7.188;2022-07-18T15:25:51;2.70;;;2.50;;
9940;SDS011;5009;50.656;7.188;2022-07-18T15:28:16;5.55;;;2.90;;
9940;SDS011;5009;50.656;7.188;2022-07-18T15:30:42;4.20;;;2.60;;
9940;SDS011;5009;50.656;7.188;2022-07-18T15:33:07;3.65;;;2.60;;
9940;SDS011;5009;50.656;7.188;2022-07-18T15:35:33;3.67;;;2.53;;
9940;SDS011;5009;50.656;7.188;2022-07-18T15:37:58;4.05;;;2.92;;
9940;SDS011;5009;50.656;7.188;2022-07-18T15:40:24;3.20;;;2.65;;
9940;SDS011;5009;50.656;7.188;2022-07-18T15:42:50;5.45;;;3.15;;
9940;SDS011;5009;50.656;7.188;2022-07-18T15:45:15;3.30;;;2.90;;
9940;SDS011;5009;50.656;7.188;2022-07-18T15:47:41;2.70;;;2.50;;
9940;SDS011;5009;50.656;7.188;2022-07-18T15:50:06;3.28;;;2.47;;
9940;SDS011;5009;50.656;7.188;2022-07-18T15:52:32;5.78;;;2.85;;
9940;SDS011;5009;50.656;7.188;2022-07-18T15:55:00;4.32;;;2.53;;
9940;SDS011;5009;50.656;7.188;2022-07-18T15:57:26;3.83;;;2.65;;
9940;SDS011;5009;50.656;7.188;2022-07-18T15:59:52;4.82;;;2.80;;
9940;SDS011;5009;50.656;7.188;2022-07-18T16:02:17;4.70;;;2.65;;
9940;SDS011;5009;50.656;7.188;2022-07-18T16:04:43;4.50;;;2.92;;